Aviation Digital Data Service (ADDS)

Output produced by METARs form (0147 UTC 02 September 2014)
found at http://www.aviationweather.gov/adds/metars/
 
KCMI 012329Z 0200/0224 23009KT P6SM VCTS SCT035CB BKN150 
     FM020400 23005KT 5SM -RA BR VCTS BKN035CB 
     FM021100 VRB05KT 5SM BR BKN035 
     FM021500 VRB06KT P6SM SCT030 BKN250